| time (UTC) | temp F | wind direction | speed MPH | gust MPH | rain 1hr in | rain 24hr in | rain mn in | humidity % | barometer mb |
| 20260906190224 | 85 | 274 | 0.0 | 0.0 | 0.00 | 0.00 | 0.00 | 49 | 1017.9 |
| 20260906183724 | 87 | 274 | 0.0 | 0.0 | 0.00 | 0.00 | 0.00 | 46 | 1017.4 |
| 20260906183224 | 88 | 274 | 0.0 | 0.0 | 0.00 | 0.00 | 0.00 | 45 | 1017.3 |
| 20260906180723 | 90 | 173 | 0.0 | 0.0 | 0.00 | 0.00 | 0.00 | 43 | 1016.9 |
| 20260906180224 | 91 | 178 | 0.0 | 0.0 | 0.00 | 0.00 | 0.00 | 42 | 1017.2 |
| 20260906173224 | 93 | 213 | 0.0 | 5.0 | 0.00 | 0.00 | 0.00 | 39 | 1016.9 |
| 20260906170724 | 95 | 173 | 1.0 | 3.0 | 0.00 | 0.00 | 0.00 | 36 | 1016.7 |
| 20260906153724 | 100 | 131 | 1.0 | 3.0 | 0.00 | 0.00 | 0.00 | 29 | 1016.2 |
| 20260906150723 | 103 | 266 | 3.0 | 10.0 | 0.00 | 0.00 | 0.00 | 20 | 1016.1 |
| 20260906140724 | 105 | 239 | 2.0 | 12.0 | 0.00 | 0.00 | 0.00 | 20 | 1016.3 |
| 20260906140224 | 105 | 278 | 5.0 | 13.0 | 0.00 | 0.00 | 0.00 | 20 | 1016.1 |
| 20260906133223 | 104 | 232 | 5.0 | 16.0 | 0.00 | 0.00 | 0.00 | 20 | 1016.3 |
| 20260906130723 | 104 | 278 | 3.0 | 10.0 | 0.00 | 0.00 | 0.00 | 19 | 1016.3 |
| 20260906120723 | 102 | 276 | 6.0 | 12.0 | 0.00 | 0.00 | 0.00 | 22 | 1016.9 |
| 20260906120223 | 101 | 236 | 4.0 | 10.0 | 0.00 | 0.00 | 0.00 | 23 | 1016.8 |
| 20260906113223 | 98 | 93 | 3.0 | 12.0 | 0.00 | 0.00 | 0.00 | 33 | 1016.9 |
| 20260906110223 | 96 | 114 | 1.0 | 8.0 | 0.00 | 0.00 | 0.00 | 37 | 1017.2 |
| 20260906103723 | 93 | 114 | 0.0 | 0.0 | 0.00 | 0.00 | 0.00 | 42 | 1017.7 |
| 20260906103223 | 93 | 62 | 0.0 | 5.0 | 0.00 | 0.00 | 0.00 | 44 | 1017.7 |
| 20260906100222 | 88 | 74 | 1.0 | 6.0 | 0.00 | 0.00 | 0.00 | 48 | 1018.2 |
| 20260906093222 | 87 | 80 | 0.0 | 3.0 | 0.00 | 0.00 | 0.00 | 51 | 1018.5 |
| 20260906090223 | 84 | 101 | 0.0 | 0.0 | 0.00 | 0.00 | 0.00 | 53 | 1018.6 |
| 20260906083223 | 81 | 100 | 0.0 | 0.0 | 0.00 | 0.00 | 0.00 | 54 | 1018.9 |
| 20260906080723 | 79 | 101 | 0.0 | 0.0 | 0.00 | 0.00 | 0.00 | 58 | 1019.0 |
| 20260906080222 | 78 | 101 | 0.0 | 2.0 | 0.00 | 0.00 | 0.00 | 59 | 1018.9 |
| 20260906073222 | 76 | 124 | 0.0 | 1.0 | 0.00 | 0.00 | 0.00 | 60 | 1019.1 |
| 20260906070723 | 71 | 242 | 0.0 | 0.0 | 0.00 | 0.00 | 0.00 | 70 | 1019.3 |
| 20260906063722 | 65 | 242 | 0.0 | 0.0 | 0.00 | 0.00 | 0.00 | 76 | 1019.4 |
| 20260906060723 | 62 | 252 | 0.0 | 0.0 | 0.00 | 0.00 | 0.00 | 78 | 1019.5 |
| 20260906053223 | 61 | 263 | 0.0 | 0.0 | 0.00 | 0.00 | 0.00 | 79 | 1019.2 |
| 20260906050723 | 61 | 252 | 0.0 | 0.0 | 0.00 | 0.00 | 0.00 | 79 | 1019.0 |
| 20260906050222 | 61 | 252 | 0.0 | 0.0 | 0.00 | 0.00 | 0.00 | 78 | 1018.7 |
| 20260906043722 | 62 | 252 | 0.0 | 0.0 | 0.00 | 0.00 | 0.00 | 78 | 1018.8 |
| 20260906040223 | 63 | 252 | 0.0 | 0.0 | 0.00 | 0.00 | 0.00 | 78 | 1018.6 |
| 20260906033723 | 64 | 252 | 0.0 | 0.0 | 0.00 | 0.00 | 0.00 | 78 | 1018.6 |
| 20260906030722 | 64 | 252 | 0.0 | 0.0 | 0.00 | 0.00 | 0.00 | 78 | 1018.7 |
| 20260906030222 | 64 | 252 | 0.0 | 0.0 | 0.00 | 0.00 | 0.00 | 77 | 1018.7 |
| 20260906020722 | 66 | 252 | 0.0 | 0.0 | 0.00 | 0.00 | 0.00 | 76 | 1018.6 |
| 20260906013222 | 67 | 224 | 0.0 | 0.0 | 0.00 | 0.00 | 0.00 | 74 | 1018.6 |
| 20260906003722 | 69 | 259 | 0.0 | 0.0 | 0.00 | 0.00 | 0.00 | 73 | 1018.8 |
| 20260906000722 | 70 | 259 | 0.0 | 0.0 | 0.00 | 0.00 | 0.00 | 71 | 1018.7 |
| 20260905230722 | 72 | 264 | 0.0 | 0.0 | 0.00 | 0.00 | 0.00 | 68 | 1018.9 |
| 20260905230222 | 72 | 251 | 0.0 | 0.0 | 0.00 | 0.00 | 0.00 | 69 | 1019.0 |
| 20260905223722 | 74 | 227 | 0.0 | 0.0 | 0.00 | 0.00 | 0.00 | 67 | 1019.0 |
| 20260905223222 | 74 | 223 | 0.0 | 0.0 | 0.00 | 0.00 | 0.00 | 67 | 1019.0 |
| 20260905220723 | 74 | 263 | 0.0 | 0.0 | 0.00 | 0.00 | 0.00 | 66 | 1019.0 |
| 20260905220222 | 74 | 262 | 0.0 | 0.0 | 0.00 | 0.00 | 0.00 | 65 | 1019.2 |
| 20260905213721 | 75 | 238 | 0.0 | 0.0 | 0.00 | 0.00 | 0.00 | 64 | 1019.2 |
| 20260905213221 | 75 | 238 | 0.0 | 0.0 | 0.00 | 0.00 | 0.00 | 64 | 1019.2 |
| 20260905210721 | 75 | 229 | 0.0 | 0.0 | 0.00 | 0.00 | 0.00 | 65 | 1019.2 |
| 20260905203721 | 76 | 121 | 0.0 | 0.0 | 0.00 | 0.00 | 0.00 | 62 | 1019.5 |
| 20260905200721 | 79 | 121 | 0.0 | 0.0 | 0.00 | 0.00 | 0.00 | 57 | 1019.3 |
| 20260905193221 | 81 | 121 | 0.0 | 0.0 | 0.00 | 0.00 | 0.00 | 54 | 1019.0 |
| 20260905190722 | 83 | 121 | 0.0 | 0.0 | 0.00 | 0.00 | 0.00 | 51 | 1018.6 |